sensor_id;sensor_type;location;lat;lon;timestamp;pressure;altitude;pressure_sealevel;temperature;humidity
57644;BME280;43474;46.510;6.686;2022-09-28T00:00:57;95319.88;;;10.45;100.00
57644;BME280;43474;46.510;6.686;2022-09-28T00:03:27;95328.06;;;10.48;100.00
57644;BME280;43474;46.510;6.686;2022-09-28T00:06:00;95313.72;;;10.39;100.00
57644;BME280;43474;46.510;6.686;2022-09-28T00:08:25;95313.22;;;10.37;100.00
57644;BME280;43474;46.510;6.686;2022-09-28T00:10:55;95315.88;;;10.52;100.00
57644;BME280;43474;46.510;6.686;2022-09-28T00:13:21;95294.97;;;10.46;100.00
57644;BME280;43474;46.510;6.686;2022-09-28T00:15:47;95285.44;;;10.40;100.00
57644;BME280;43474;46.510;6.686;2022-09-28T00:18:12;95278.78;;;10.37;100.00
57644;BME280;43474;46.510;6.686;2022-09-28T00:20:38;95280.13;;;10.40;100.00
57644;BME280;43474;46.510;6.686;2022-09-28T00:23:03;95272.97;;;10.40;100.00
57644;BME280;43474;46.510;6.686;2022-09-28T00:25:29;95276.69;;;10.44;100.00
57644;BME280;43474;46.510;6.686;2022-09-28T00:27:54;95260.50;;;10.25;100.00
57644;BME280;43474;46.510;6.686;2022-09-28T00:30:21;95259.16;;;10.28;100.00
57644;BME280;43474;46.510;6.686;2022-09-28T00:32:46;95256.75;;;10.16;100.00
57644;BME280;43474;46.510;6.686;2022-09-28T00:35:12;95244.03;;;10.13;100.00
57644;BME280;43474;46.510;6.686;2022-09-28T00:37:38;95255.69;;;10.12;100.00
57644;BME280;43474;46.510;6.686;2022-09-28T00:40:05;95252.75;;;10.08;100.00
57644;BME280;43474;46.510;6.686;2022-09-28T00:42:30;95260.44;;;10.10;100.00
57644;BME280;43474;46.510;6.686;2022-09-28T00:44:57;95254.34;;;10.04;100.00
57644;BME280;43474;46.510;6.686;2022-09-28T00:50:31;95246.38;;;9.94;100.00
57644;BME280;43474;46.510;6.686;2022-09-28T00:53:05;95246.91;;;9.96;100.00
57644;BME280;43474;46.510;6.686;2022-09-28T00:55:38;95243.97;;;9.93;100.00
57644;BME280;43474;46.510;6.686;2022-09-28T00:58:05;95245.03;;;9.81;100.00
57644;BME280;43474;46.510;6.686;2022-09-28T01:00:31;95239.72;;;9.76;100.00
57644;BME280;43474;46.510;6.686;2022-09-28T01:02:57;95228.56;;;9.69;100.00
57644;BME280;43474;46.510;6.686;2022-09-28T01:05:24;95231.75;;;9.71;100.00
57644;BME280;43474;46.510;6.686;2022-09-28T01:07:51;95226.72;;;9.65;100.00
57644;BME280;43474;46.510;6.686;2022-09-28T01:10:17;95229.59;;;9.63;100.00
57644;BME280;43474;46.510;6.686;2022-09-28T01:12:43;95229.59;;;9.58;100.00
57644;BME280;43474;46.510;6.686;2022-09-28T01:15:08;95231.47;;;9.63;100.00
57644;BME280;43474;46.510;6.686;2022-09-28T01:20:26;95228.28;;;9.61;100.00
57644;BME280;43474;46.510;6.686;2022-09-28T01:28:11;95228.78;;;9.52;100.00
57644;BME280;43474;46.510;6.686;2022-09-28T01:31:09;95226.63;;;9.49;100.00
57644;BME280;43474;46.510;6.686;2022-09-28T01:33:44;95214.75;;;9.47;100.00
57644;BME280;43474;46.510;6.686;2022-09-28T01:36:21;95209.16;;;9.38;100.00
57644;BME280;43474;46.510;6.686;2022-09-28T01:39:06;95203.06;;;9.38;100.00
57644;BME280;43474;46.510;6.686;2022-09-28T01:41:34;95211.28;;;9.36;100.00
57644;BME280;43474;46.510;6.686;2022-09-28T01:44:09;95181.59;;;9.24;100.00
57644;BME280;43474;46.510;6.686;2022-09-28T01:46:39;95196.97;;;9.32;100.00
57644;BME280;43474;46.510;6.686;2022-09-28T01:49:14;95197.75;;;9.27;100.00
57644;BME280;43474;46.510;6.686;2022-09-28T01:51:49;95181.81;;;9.12;100.00
57644;BME280;43474;46.510;6.686;2022-09-28T01:54:24;95201.44;;;9.26;100.00
57644;BME280;43474;46.510;6.686;2022-09-28T01:56:58;95184.50;;;9.22;100.00
57644;BME280;43474;46.510;6.686;2022-09-28T01:59:28;95186.09;;;9.28;100.00
57644;BME280;43474;46.510;6.686;2022-09-28T02:02:15;95187.19;;;9.32;100.00
57644;BME280;43474;46.510;6.686;2022-09-28T02:04:48;95185.88;;;9.35;100.00
57644;BME280;43474;46.510;6.686;2022-09-28T02:07:38;95177.13;;;9.29;100.00
57644;BME280;43474;46.510;6.686;2022-09-28T02:10:13;95180.59;;;9.30;100.00
57644;BME280;43474;46.510;6.686;2022-09-28T02:13:14;95172.31;;;9.11;100.00
57644;BME280;43474;46.510;6.686;2022-09-28T02:15:45;95151.88;;;8.96;100.00
57644;BME280;43474;46.510;6.686;2022-09-28T02:18:13;95169.34;;;9.02;100.00
57644;BME280;43474;46.510;6.686;2022-09-28T02:20:40;95164.06;;;9.02;100.00
57644;BME280;43474;46.510;6.686;2022-09-28T02:23:08;95153.97;;;8.94;100.00
57644;BME280;43474;46.510;6.686;2022-09-28T02:25:44;95162.97;;;8.98;100.00
57644;BME280;43474;46.510;6.686;2022-09-28T02:28:12;95153.41;;;8.82;100.00
57644;BME280;43474;46.510;6.686;2022-09-28T02:30:39;95161.09;;;8.89;100.00
57644;BME280;43474;46.510;6.686;2022-09-28T02:33:29;95162.91;;;8.83;100.00
57644;BME280;43474;46.510;6.686;2022-09-28T02:35:58;95171.13;;;8.87;100.00
57644;BME280;43474;46.510;6.686;2022-09-28T02:38:25;95164.22;;;8.80;100.00
57644;BME280;43474;46.510;6.686;2022-09-28T02:41:10;95157.31;;;8.74;100.00
57644;BME280;43474;46.510;6.686;2022-09-28T02:46:26;95153.66;;;8.80;100.00
57644;BME280;43474;46.510;6.686;2022-09-28T02:55:03;95166.09;;;8.85;100.00
57644;BME280;43474;46.510;6.686;2022-09-28T03:00:14;95146.50;;;8.76;100.00
57644;BME280;43474;46.510;6.686;2022-09-28T03:02:50;95139.91;;;8.78;100.00
57644;BME280;43474;46.510;6.686;2022-09-28T03:05:28;95150.00;;;8.87;100.00
57644;BME280;43474;46.510;6.686;2022-09-28T03:08:00;95155.81;;;8.94;100.00
57644;BME280;43474;46.510;6.686;2022-09-28T03:10:54;95152.38;;;8.88;100.00
57644;BME280;43474;46.510;6.686;2022-09-28T03:13:20;95143.66;;;8.93;100.00
57644;BME280;43474;46.510;6.686;2022-09-28T03:15:46;95138.38;;;8.93;100.00
57644;BME280;43474;46.510;6.686;2022-09-28T03:18:11;95137.88;;;8.96;100.00
57644;BME280;43474;46.510;6.686;2022-09-28T03:20:37;95143.16;;;8.96;100.00
57644;BME280;43474;46.510;6.686;2022-09-28T03:23:03;95124.38;;;8.87;100.00
57644;BME280;43474;46.510;6.686;2022-09-28T03:25:28;95122.81;;;8.91;100.00
57644;BME280;43474;46.510;6.686;2022-09-28T03:27:54;95108.78;;;8.86;100.00
57644;BME280;43474;46.510;6.686;2022-09-28T03:30:19;95112.25;;;8.96;100.00
57644;BME280;43474;46.510;6.686;2022-09-28T03:32:46;95116.47;;;8.97;100.00
57644;BME280;43474;46.510;6.686;2022-09-28T03:35:12;95116.50;;;9.02;100.00
57644;BME280;43474;46.510;6.686;2022-09-28T03:37:37;95112.50;;;9.00;100.00
57644;BME280;43474;46.510;6.686;2022-09-28T03:40:04;95117.88;;;9.10;100.00
57644;BME280;43474;46.510;6.686;2022-09-28T03:42:30;95111.50;;;9.06;100.00
57644;BME280;43474;46.510;6.686;2022-09-28T03:44:56;95113.88;;;9.07;100.00
57644;BME280;43474;46.510;6.686;2022-09-28T03:47:21;95106.75;;;9.13;100.00
57644;BME280;43474;46.510;6.686;2022-09-28T03:49:47;95096.72;;;9.05;100.00
57644;BME280;43474;46.510;6.686;2022-09-28T03:52:13;95121.06;;;9.22;100.00
57644;BME280;43474;46.510;6.686;2022-09-28T03:54:39;95106.00;;;9.23;100.00
57644;BME280;43474;46.510;6.686;2022-09-28T03:57:05;95092.50;;;9.24;100.00
57644;BME280;43474;46.510;6.686;2022-09-28T03:59:31;95093.88;;;9.32;100.00
57644;BME280;43474;46.510;6.686;2022-09-28T04:01:56;95078.25;;;9.20;100.00
57644;BME280;43474;46.510;6.686;2022-09-28T04:04:22;95058.94;;;9.20;100.00
57644;BME280;43474;46.510;6.686;2022-09-28T04:06:48;95068.22;;;9.27;100.00
57644;BME280;43474;46.510;6.686;2022-09-28T04:09:13;95053.69;;;9.25;100.00
57644;BME280;43474;46.510;6.686;2022-09-28T04:11:39;95057.94;;;9.36;100.00
57644;BME280;43474;46.510;6.686;2022-09-28T04:14:04;95048.66;;;9.33;100.00
57644;BME280;43474;46.510;6.686;2022-09-28T04:16:30;95049.22;;;9.41;100.00
57644;BME280;43474;46.510;6.686;2022-09-28T04:18:57;95045.50;;;9.42;100.00
57644;BME280;43474;46.510;6.686;2022-09-28T04:21:22;95050.78;;;9.42;100.00
57644;BME280;43474;46.510;6.686;2022-09-28T04:23:48;95056.34;;;9.45;100.00
57644;BME280;43474;46.510;6.686;2022-09-28T04:26:16;95053.44;;;9.52;100.00
57644;BME280;43474;46.510;6.686;2022-09-28T04:28:46;95058.22;;;9.55;100.00
57644;BME280;43474;46.510;6.686;2022-09-28T04:31:39;95048.44;;;9.61;100.00
57644;BME280;43474;46.510;6.686;2022-09-28T04:34:06;95035.22;;;9.50;100.00
57644;BME280;43474;46.510;6.686;2022-09-28T04:36:32;95041.81;;;9.53;100.00
57644;BME280;43474;46.510;6.686;2022-09-28T04:38:57;95038.66;;;9.61;100.00
57644;BME280;43474;46.510;6.686;2022-09-28T04:41:24;95039.97;;;9.69;100.00
57644;BME280;43474;46.510;6.686;2022-09-28T04:43:51;95051.88;;;9.81;100.00
57644;BME280;43474;46.510;6.686;2022-09-28T04:46:17;95040.50;;;9.76;100.00
57644;BME280;43474;46.510;6.686;2022-09-28T04:48:42;95032.84;;;9.84;100.00
57644;BME280;43474;46.510;6.686;2022-09-28T04:51:08;95031.22;;;9.73;100.00
57644;BME280;43474;46.510;6.686;2022-09-28T04:53:34;95039.72;;;9.75;100.00
57644;BME280;43474;46.510;6.686;2022-09-28T04:56:13;95029.13;;;9.80;100.00
57644;BME280;43474;46.510;6.686;2022-09-28T04:58:39;95020.91;;;9.82;100.00
57644;BME280;43474;46.510;6.686;2022-09-28T05:01:07;95019.59;;;9.79;100.00
57644;BME280;43474;46.510;6.686;2022-09-28T05:03:34;95019.34;;;9.86;100.00
57644;BME280;43474;46.510;6.686;2022-09-28T05:06:00;95003.72;;;9.79;100.00
57644;BME280;43474;46.510;6.686;2022-09-28T05:08:26;94999.22;;;9.85;100.00
57644;BME280;43474;46.510;6.686;2022-09-28T05:11:03;95007.41;;;9.94;100.00
57644;BME280;43474;46.510;6.686;2022-09-28T05:13:30;95002.66;;;9.96;100.00
57644;BME280;43474;46.510;6.686;2022-09-28T05:15:57;94993.16;;;9.84;100.00
57644;BME280;43474;46.510;6.686;2022-09-28T05:18:23;95009.81;;;9.95;100.00
57644;BME280;43474;46.510;6.686;2022-09-28T05:20:49;95005.81;;;9.98;100.00
57644;BME280;43474;46.510;6.686;2022-09-28T05:23:15;94991.28;;;9.95;100.00
57644;BME280;43474;46.510;6.686;2022-09-28T05:25:41;94995.75;;;10.05;100.00
57644;BME280;43474;46.510;6.686;2022-09-28T05:28:07;94980.13;;;10.03;100.00
57644;BME280;43474;46.510;6.686;2022-09-28T05:30:34;94988.31;;;10.12;100.00
57644;BME280;43474;46.510;6.686;2022-09-28T05:33:00;94967.16;;;10.07;100.00
57644;BME280;43474;46.510;6.686;2022-09-28T05:35:26;94969.75;;;10.22;100.00
57644;BME280;43474;46.510;6.686;2022-09-28T05:37:52;94956.03;;;10.15;100.00
57644;BME280;43474;46.510;6.686;2022-09-28T05:40:19;94972.72;;;10.26;100.00
57644;BME280;43474;46.510;6.686;2022-09-28T05:42:45;94951.22;;;10.22;100.00
57644;BME280;43474;46.510;6.686;2022-09-28T05:45:10;94955.75;;;10.27;100.00
57644;BME280;43474;46.510;6.686;2022-09-28T05:47:40;94973.72;;;10.40;100.00
57644;BME280;43474;46.510;6.686;2022-09-28T05:50:08;94985.63;;;10.43;100.00
57644;BME280;43474;46.510;6.686;2022-09-28T05:52:37;94974.75;;;10.39;100.00
57644;BME280;43474;46.510;6.686;2022-09-28T05:55:06;94964.69;;;10.46;100.00
57644;BME280;43474;46.510;6.686;2022-09-28T05:57:32;94969.97;;;10.46;100.00
57644;BME280;43474;46.510;6.686;2022-09-28T05:59:57;94985.63;;;10.43;100.00
57644;BME280;43474;46.510;6.686;2022-09-28T06:02:23;94979.47;;;10.57;100.00
57644;BME280;43474;46.510;6.686;2022-09-28T06:04:49;94966.81;;;10.44;100.00
57644;BME280;43474;46.510;6.686;2022-09-28T06:07:18;94977.09;;;10.56;100.00
57644;BME280;43474;46.510;6.686;2022-09-28T06:09:45;94965.19;;;10.48;100.00
57644;BME280;43474;46.510;6.686;2022-09-28T06:12:10;94975.00;;;10.48;100.00
57644;BME280;43474;46.510;6.686;2022-09-28T06:14:36;94973.91;;;10.54;100.00
57644;BME280;43474;46.510;6.686;2022-09-28T06:17:01;94973.38;;;10.57;100.00
57644;BME280;43474;46.510;6.686;2022-09-28T06:19:27;94981.84;;;10.59;100.00
57644;BME280;43474;46.510;6.686;2022-09-28T06:21:53;94967.63;;;10.40;100.00
57644;BME280;43474;46.510;6.686;2022-09-28T06:24:19;94973.94;;;10.49;100.00
57644;BME280;43474;46.510;6.686;2022-09-28T06:26:44;94942.78;;;10.30;100.00
57644;BME280;43474;46.510;6.686;2022-09-28T06:29:10;94952.81;;;10.33;100.00
57644;BME280;43474;46.510;6.686;2022-09-28T06:31:38;94951.75;;;10.40;100.00
57644;BME280;43474;46.510;6.686;2022-09-28T06:34:03;94963.09;;;10.45;100.00
57644;BME280;43474;46.510;6.686;2022-09-28T06:36:29;94968.91;;;10.47;100.00
57644;BME280;43474;46.510;6.686;2022-09-28T06:38:55;94959.91;;;10.48;100.00
57644;BME280;43474;46.510;6.686;2022-09-28T06:41:21;94951.44;;;10.46;100.00
57644;BME280;43474;46.510;6.686;2022-09-28T06:43:47;94984.25;;;10.55;100.00
57644;BME280;43474;46.510;6.686;2022-09-28T06:46:13;94968.88;;;10.57;100.00
57644;BME280;43474;46.510;6.686;2022-09-28T06:48:38;94973.34;;;10.62;100.00
57644;BME280;43474;46.510;6.686;2022-09-28T06:51:05;94973.63;;;10.66;100.00
57644;BME280;43474;46.510;6.686;2022-09-28T06:53:31;94982.03;;;10.73;100.00
57644;BME280;43474;46.510;6.686;2022-09-28T06:55:57;94977.28;;;10.75;100.00
57644;BME280;43474;46.510;6.686;2022-09-28T06:58:23;94990.75;;;10.78;100.00
57644;BME280;43474;46.510;6.686;2022-09-28T07:00:50;94971.16;;;10.79;100.00
57644;BME280;43474;46.510;6.686;2022-09-28T07:03:18;94982.75;;;10.88;100.00
57644;BME280;43474;46.510;6.686;2022-09-28T07:05:47;94962.38;;;10.84;100.00
57644;BME280;43474;46.510;6.686;2022-09-28T07:08:23;94988.81;;;10.99;100.00
57644;BME280;43474;46.510;6.686;2022-09-28T07:10:51;94988.38;;;11.26;100.00
57644;BME280;43474;46.510;6.686;2022-09-28T07:13:26;94973.06;;;11.86;100.00
57644;BME280;43474;46.510;6.686;2022-09-28T07:15:57;94971.38;;;12.25;100.00
57644;BME280;43474;46.510;6.686;2022-09-28T07:18:24;94938.69;;;12.48;100.00
57644;BME280;43474;46.510;6.686;2022-09-28T07:20:54;94956.28;;;12.63;100.00
57644;BME280;43474;46.510;6.686;2022-09-28T07:23:21;94935.00;;;12.68;100.00
57644;BME280;43474;46.510;6.686;2022-09-28T07:25:47;94938.56;;;12.77;100.00
57644;BME280;43474;46.510;6.686;2022-09-28T07:28:15;94939.50;;;12.86;100.00
57644;BME280;43474;46.510;6.686;2022-09-28T07:30:42;94937.22;;;12.80;100.00
57644;BME280;43474;46.510;6.686;2022-09-28T07:33:11;94936.63;;;12.83;100.00
57644;BME280;43474;46.510;6.686;2022-09-28T07:35:37;94940.91;;;12.84;100.00
57644;BME280;43474;46.510;6.686;2022-09-28T07:38:05;94939.03;;;12.84;100.00
57644;BME280;43474;46.510;6.686;2022-09-28T07:40:31;94956.72;;;12.94;100.00
57644;BME280;43474;46.510;6.686;2022-09-28T07:43:16;94950.22;;;13.00;100.00
57644;BME280;43474;46.510;6.686;2022-09-28T07:45:46;94946.25;;;12.98;100.00
57644;BME280;43474;46.510;6.686;2022-09-28T07:48:12;94940.00;;;13.07;100.00
57644;BME280;43474;46.510;6.686;2022-09-28T07:50:41;94926.00;;;13.02;100.00
57644;BME280;43474;46.510;6.686;2022-09-28T07:53:06;94942.59;;;13.12;100.00
57644;BME280;43474;46.510;6.686;2022-09-28T07:55:32;94952.75;;;13.10;100.00
57644;BME280;43474;46.510;6.686;2022-09-28T07:57:59;94936.38;;;13.22;100.00
57644;BME280;43474;46.510;6.686;2022-09-28T08:00:26;94939.78;;;13.28;100.00
57644;BME280;43474;46.510;6.686;2022-09-28T08:02:52;94936.28;;;13.27;100.00
57644;BME280;43474;46.510;6.686;2022-09-28T08:05:18;94936.22;;;13.32;100.00
57644;BME280;43474;46.510;6.686;2022-09-28T08:07:43;94938.94;;;13.46;100.00
57644;BME280;43474;46.510;6.686;2022-09-28T08:10:09;94943.16;;;13.47;100.00
57644;BME280;43474;46.510;6.686;2022-09-28T08:12:34;94930.94;;;13.46;100.00
57644;BME280;43474;46.510;6.686;2022-09-28T08:15:00;94920.44;;;13.55;100.00
57644;BME280;43474;46.510;6.686;2022-09-28T08:17:25;94933.56;;;13.65;100.00
57644;BME280;43474;46.510;6.686;2022-09-28T08:19:51;94916.72;;;13.69;100.00
57644;BME280;43474;46.510;6.686;2022-09-28T08:22:35;94931.66;;;13.84;100.00
57644;BME280;43474;46.510;6.686;2022-09-28T08:25:01;94934.09;;;13.81;100.00
57644;BME280;43474;46.510;6.686;2022-09-28T08:27:27;94923.84;;;13.74;100.00
57644;BME280;43474;46.510;6.686;2022-09-28T08:29:52;94919.59;;;13.73;100.00
57644;BME280;43474;46.510;6.686;2022-09-28T08:32:18;94909.91;;;13.77;100.00
57644;BME280;43474;46.510;6.686;2022-09-28T08:34:44;94926.63;;;13.83;100.00
57644;BME280;43474;46.510;6.686;2022-09-28T08:37:10;94915.47;;;13.81;100.00
57644;BME280;43474;46.510;6.686;2022-09-28T08:39:35;94912.44;;;13.87;100.00
57644;BME280;43474;46.510;6.686;2022-09-28T08:44:44;94931.94;;;13.50;100.00
57644;BME280;43474;46.510;6.686;2022-09-28T08:47:19;94971.56;;;13.52;100.00
57644;BME280;43474;46.510;6.686;2022-09-28T08:50:08;94983.09;;;13.47;100.00
57644;BME280;43474;46.510;6.686;2022-09-28T08:52:39;94991.94;;;13.42;100.00
57644;BME280;43474;46.510;6.686;2022-09-28T08:55:17;94979.13;;;13.63;100.00
57644;BME280;43474;46.510;6.686;2022-09-28T08:57:53;94958.28;;;13.84;100.00
57644;BME280;43474;46.510;6.686;2022-09-28T09:00:34;94954.34;;;13.95;100.00
57644;BME280;43474;46.510;6.686;2022-09-28T09:03:10;94934.53;;;14.02;100.00
57644;BME280;43474;46.510;6.686;2022-09-28T09:05:57;94955.56;;;14.31;100.00
57644;BME280;43474;46.510;6.686;2022-09-28T09:19:15;94937.06;;;14.53;100.00
57644;BME280;43474;46.510;6.686;2022-09-28T09:21:58;94953.69;;;14.45;100.00
57644;BME280;43474;46.510;6.686;2022-09-28T09:24:38;94965.94;;;14.46;100.00
57644;BME280;43474;46.510;6.686;2022-09-28T09:27:33;94955.78;;;14.34;100.00
57644;BME280;43474;46.510;6.686;2022-09-28T09:30:05;94970.28;;;14.28;100.00
57644;BME280;43474;46.510;6.686;2022-09-28T09:38:01;94982.03;;;14.27;100.00
57644;BME280;43474;46.510;6.686;2022-09-28T09:49:36;94982.09;;;14.08;100.00
57644;BME280;43474;46.510;6.686;2022-09-28T09:56:50;94955.03;;;14.01;100.00
57644;BME280;43474;46.510;6.686;2022-09-28T09:59:21;94962.25;;;14.01;100.00
57644;BME280;43474;46.510;6.686;2022-09-28T10:01:49;94947.84;;;13.88;100.00
57644;BME280;43474;46.510;6.686;2022-09-28T10:04:23;94945.44;;;13.86;100.00
57644;BME280;43474;46.510;6.686;2022-09-28T10:06:54;94948.88;;;13.73;100.00
57644;BME280;43474;46.510;6.686;2022-09-28T10:09:47;94953.78;;;13.66;100.00
57644;BME280;43474;46.510;6.686;2022-09-28T10:12:18;94931.25;;;13.44;100.00
57644;BME280;43474;46.510;6.686;2022-09-28T10:14:45;94954.94;;;13.60;100.00
57644;BME280;43474;46.510;6.686;2022-09-28T10:17:16;94946.41;;;13.63;100.00
57644;BME280;43474;46.510;6.686;2022-09-28T10:19:43;94945.00;;;13.65;100.00
57644;BME280;43474;46.510;6.686;2022-09-28T10:22:14;94953.28;;;13.64;100.00
57644;BME280;43474;46.510;6.686;2022-09-28T10:24:43;94954.66;;;13.61;100.00
57644;BME280;43474;46.510;6.686;2022-09-28T10:27:14;94956.00;;;13.78;100.00
57644;BME280;43474;46.510;6.686;2022-09-28T10:30:12;94948.81;;;13.92;100.00
57644;BME280;43474;46.510;6.686;2022-09-28T10:32:41;94946.69;;;14.08;100.00
57644;BME280;43474;46.510;6.686;2022-09-28T10:35:26;94946.97;;;14.06;100.00
57644;BME280;43474;46.510;6.686;2022-09-28T10:38:00;94934.06;;;14.27;100.00
57644;BME280;43474;46.510;6.686;2022-09-28T10:40:50;94938.50;;;14.45;100.00
57644;BME280;43474;46.510;6.686;2022-09-28T10:46:06;94931.50;;;14.50;100.00
57644;BME280;43474;46.510;6.686;2022-09-28T10:51:14;94932.59;;;14.48;100.00
57644;BME280;43474;46.510;6.686;2022-09-28T10:53:40;94926.06;;;14.55;100.00
57644;BME280;43474;46.510;6.686;2022-09-28T10:56:27;94936.22;;;14.66;100.00
57644;BME280;43474;46.510;6.686;2022-09-28T10:58:54;94922.38;;;14.92;100.00
57644;BME280;43474;46.510;6.686;2022-09-28T11:01:23;94906.94;;;15.03;100.00
57644;BME280;43474;46.510;6.686;2022-09-28T11:03:54;94899.50;;;14.99;100.00
57644;BME280;43474;46.510;6.686;2022-09-28T11:06:26;94909.22;;;14.95;100.00
57644;BME280;43474;46.510;6.686;2022-09-28T11:08:54;94902.88;;;14.91;100.00
57644;BME280;43474;46.510;6.686;2022-09-28T11:11:21;94892.75;;;14.80;100.00
57644;BME280;43474;46.510;6.686;2022-09-28T11:13:59;94893.09;;;14.64;100.00
57644;BME280;43474;46.510;6.686;2022-09-28T11:16:32;94883.31;;;14.60;100.00
57644;BME280;43474;46.510;6.686;2022-09-28T11:21:44;94898.16;;;14.52;100.00
57644;BME280;43474;46.510;6.686;2022-09-28T11:26:42;94897.84;;;14.54;100.00
57644;BME280;43474;46.510;6.686;2022-09-28T11:32:02;94893.00;;;14.28;100.00
57644;BME280;43474;46.510;6.686;2022-09-28T11:34:35;94907.00;;;14.34;100.00
57644;BME280;43474;46.510;6.686;2022-09-28T11:37:26;94898.53;;;14.18;100.00
57644;BME280;43474;46.510;6.686;2022-09-28T11:45:42;94898.47;;;13.77;100.00
57644;BME280;43474;46.510;6.686;2022-09-28T11:48:14;94895.72;;;13.82;100.00
57644;BME280;43474;46.510;6.686;2022-09-28T11:50:47;94895.28;;;13.93;100.00
57644;BME280;43474;46.510;6.686;2022-09-28T11:53:28;94888.84;;;13.94;100.00
57644;BME280;43474;46.510;6.686;2022-09-28T11:58:34;94882.03;;;14.16;100.00
57644;BME280;43474;46.510;6.686;2022-09-28T12:01:03;94876.59;;;14.35;100.00
57644;BME280;43474;46.510;6.686;2022-09-28T12:03:39;94852.84;;;14.52;100.00
57644;BME280;43474;46.510;6.686;2022-09-28T12:06:08;94854.38;;;14.67;100.00
57644;BME280;43474;46.510;6.686;2022-09-28T12:08:43;94849.94;;;14.62;100.00
57644;BME280;43474;46.510;6.686;2022-09-28T12:13:44;94837.75;;;14.47;100.00
57644;BME280;43474;46.510;6.686;2022-09-28T12:16:15;94823.00;;;14.36;100.00
57644;BME280;43474;46.510;6.686;2022-09-28T12:19:01;94841.06;;;14.39;100.00
57644;BME280;43474;46.510;6.686;2022-09-28T12:24:38;94868.72;;;14.43;100.00
57644;BME280;43474;46.510;6.686;2022-09-28T12:29:49;94874.94;;;14.39;100.00
57644;BME280;43474;46.510;6.686;2022-09-28T12:32:33;94867.94;;;14.29;100.00
57644;BME280;43474;46.510;6.686;2022-09-28T12:35:14;94860.72;;;14.16;100.00
57644;BME280;43474;46.510;6.686;2022-09-28T12:43:32;94889.34;;;14.10;100.00
57644;BME280;43474;46.510;6.686;2022-09-28T12:46:20;94892.78;;;14.11;100.00
57644;BME280;43474;46.510;6.686;2022-09-28T12:49:04;94885.69;;;14.20;100.00
57644;BME280;43474;46.510;6.686;2022-09-28T12:54:30;94858.97;;;13.98;100.00
57644;BME280;43474;46.510;6.686;2022-09-28T13:02:13;94849.69;;;14.22;100.00
57644;BME280;43474;46.510;6.686;2022-09-28T13:08:12;94838.53;;;14.20;100.00
57644;BME280;43474;46.510;6.686;2022-09-28T13:11:05;94814.88;;;14.05;100.00
57644;BME280;43474;46.510;6.686;2022-09-28T13:13:56;94840.19;;;14.16;100.00
57644;BME280;43474;46.510;6.686;2022-09-28T13:16:34;94836.94;;;14.19;100.00
57644;BME280;43474;46.510;6.686;2022-09-28T13:19:18;94831.94;;;14.04;100.00
57644;BME280;43474;46.510;6.686;2022-09-28T13:22:08;94837.56;;;14.03;100.00
57644;BME280;43474;46.510;6.686;2022-09-28T13:24:39;94835.19;;;14.15;100.00
57644;BME280;43474;46.510;6.686;2022-09-28T13:27:09;94836.38;;;14.09;100.00
57644;BME280;43474;46.510;6.686;2022-09-28T13:29:38;94829.28;;;14.18;100.00
57644;BME280;43474;46.510;6.686;2022-09-28T13:32:07;94848.81;;;14.13;100.00
57644;BME280;43474;46.510;6.686;2022-09-28T13:34:35;94828.28;;;14.00;100.00
57644;BME280;43474;46.510;6.686;2022-09-28T13:39:36;94842.69;;;14.13;100.00
57644;BME280;43474;46.510;6.686;2022-09-28T13:42:04;94842.19;;;14.11;100.00
57644;BME280;43474;46.510;6.686;2022-09-28T13:44:43;94847.41;;;14.16;100.00
57644;BME280;43474;46.510;6.686;2022-09-28T13:55:22;94846.28;;;14.44;100.00
57644;BME280;43474;46.510;6.686;2022-09-28T14:10:52;94857.94;;;13.66;100.00
57644;BME280;43474;46.510;6.686;2022-09-28T14:16:21;94854.47;;;13.52;100.00
57644;BME280;43474;46.510;6.686;2022-09-28T14:18:55;94851.13;;;13.46;100.00
57644;BME280;43474;46.510;6.686;2022-09-28T14:21:46;94844.72;;;13.61;100.00
57644;BME280;43474;46.510;6.686;2022-09-28T14:24:24;94846.94;;;13.73;100.00
57644;BME280;43474;46.510;6.686;2022-09-28T14:27:26;94838.13;;;13.72;100.00
57644;BME280;43474;46.510;6.686;2022-09-28T14:30:06;94855.88;;;13.77;100.00
57644;BME280;43474;46.510;6.686;2022-09-28T14:32:41;94841.69;;;13.67;100.00
57644;BME280;43474;46.510;6.686;2022-09-28T14:35:30;94841.31;;;13.74;100.00
57644;BME280;43474;46.510;6.686;2022-09-28T14:38:02;94860.22;;;13.86;100.00
57644;BME280;43474;46.510;6.686;2022-09-28T14:48:52;94858.63;;;13.71;100.00
57644;BME280;43474;46.510;6.686;2022-09-28T14:54:02;94864.19;;;13.75;100.00
57644;BME280;43474;46.510;6.686;2022-09-28T14:59:20;94844.81;;;13.56;100.00
57644;BME280;43474;46.510;6.686;2022-09-28T15:01:58;94865.25;;;13.60;100.00
57644;BME280;43474;46.510;6.686;2022-09-28T15:04:29;94859.78;;;13.52;100.00
57644;BME280;43474;46.510;6.686;2022-09-28T15:06:55;94875.94;;;13.41;100.00
57644;BME280;43474;46.510;6.686;2022-09-28T15:09:36;94878.59;;;13.28;100.00
57644;BME280;43474;46.510;6.686;2022-09-28T15:14:44;94866.41;;;13.22;100.00
57644;BME280;43474;46.510;6.686;2022-09-28T15:17:11;94879.44;;;13.23;100.00
57644;BME280;43474;46.510;6.686;2022-09-28T15:22:24;94891.56;;;13.10;100.00
57644;BME280;43474;46.510;6.686;2022-09-28T15:27:20;94905.66;;;12.92;100.00
57644;BME280;43474;46.510;6.686;2022-09-28T15:30:56;94908.69;;;12.85;100.00
57644;BME280;43474;46.510;6.686;2022-09-28T15:32:52;94902.66;;;12.80;100.00
57644;BME280;43474;46.510;6.686;2022-09-28T15:35:22;94899.28;;;12.74;100.00
57644;BME280;43474;46.510;6.686;2022-09-28T15:37:49;94902.09;;;12.64;100.00
57644;BME280;43474;46.510;6.686;2022-09-28T15:40:20;94917.97;;;12.69;100.00
57644;BME280;43474;46.510;6.686;2022-09-28T15:42:47;94902.16;;;12.59;100.00